Arklow, Ireland
Current Conditions -  °F | °C
As of 8:00 PM on Friday 19 Dec 2014 (Local Time) from EIME Reporting Station
Few Clouds Few Clouds  
Wind Chill: 31°   Ceiling: Unl
Heat Index: 41°   Visibility: 6mi
Dew Point: 36°   Wind: 22mph
Humidity: 81%   Direction: 230°SW
Pressure: 30.12"   Gusts: NA
Location:  52.8°N, 6.15°W
Report Text: EIME 192000Z 23019KT 9999 FEW041 05/02 Q1020
Loading
Personal Weather Stations






























Interactive Weather Map New forecast layout! Learn more

10-Day Weather Forecast

Advertisements
Track Severe Weather on mobile